sensor_id;sensor_type;location;lat;lon;timestamp;P1;durP1;ratioP1;P2;durP2;ratioP2
52946;SDS011;68773;40.400;17.260;2023-05-18T00:02:02;4.28;;;1.45;;
52946;SDS011;68773;40.400;17.260;2023-05-18T00:04:29;3.13;;;0.90;;
52946;SDS011;68773;40.400;17.260;2023-05-18T00:06:55;3.40;;;0.95;;
52946;SDS011;68773;40.400;17.260;2023-05-18T00:09:25;3.00;;;1.00;;
52946;SDS011;68773;40.400;17.260;2023-05-18T00:11:51;2.75;;;1.00;;
52946;SDS011;68773;40.400;17.260;2023-05-18T00:14:17;2.20;;;1.00;;
52946;SDS011;68773;40.400;17.260;2023-05-18T00:16:43;3.10;;;1.20;;
52946;SDS011;68773;40.400;17.260;2023-05-18T00:19:09;2.17;;;1.20;;
52946;SDS011;68773;40.400;17.260;2023-05-18T00:21:42;1.73;;;0.80;;
52946;SDS011;68773;40.400;17.260;2023-05-18T00:24:10;5.18;;;0.85;;
52946;SDS011;68773;40.400;17.260;2023-05-18T00:26:40;2.17;;;0.90;;
52946;SDS011;68773;40.400;17.260;2023-05-18T00:29:06;1.80;;;0.80;;
52946;SDS011;68773;40.400;17.260;2023-05-18T00:31:33;2.83;;;1.00;;
52946;SDS011;68773;40.400;17.260;2023-05-18T00:34:09;1.70;;;0.98;;
52946;SDS011;68773;40.400;17.260;2023-05-18T00:36:37;2.53;;;0.93;;
52946;SDS011;68773;40.400;17.260;2023-05-18T00:39:03;1.65;;;0.80;;
52946;SDS011;68773;40.400;17.260;2023-05-18T00:41:30;4.85;;;1.30;;
52946;SDS011;68773;40.400;17.260;2023-05-18T00:43:57;3.13;;;0.90;;
52946;SDS011;68773;40.400;17.260;2023-05-18T00:46:24;6.10;;;0.80;;
52946;SDS011;68773;40.400;17.260;2023-05-18T00:48:51;1.95;;;1.00;;
52946;SDS011;68773;40.400;17.260;2023-05-18T00:51:19;1.92;;;0.90;;
52946;SDS011;68773;40.400;17.260;2023-05-18T00:53:51;1.88;;;1.17;;
52946;SDS011;68773;40.400;17.260;2023-05-18T00:56:18;2.90;;;0.75;;
52946;SDS011;68773;40.400;17.260;2023-05-18T00:58:47;4.03;;;0.80;;
52946;SDS011;68773;40.400;17.260;2023-05-18T01:03:52;3.47;;;0.95;;
52946;SDS011;68773;40.400;17.260;2023-05-18T01:06:21;4.35;;;0.98;;
52946;SDS011;68773;40.400;17.260;2023-05-18T01:08:51;6.03;;;0.95;;
52946;SDS011;68773;40.400;17.260;2023-05-18T01:14:15;4.07;;;1.20;;
52946;SDS011;68773;40.400;17.260;2023-05-18T01:16:44;2.97;;;0.82;;
52946;SDS011;68773;40.400;17.260;2023-05-18T01:22:12;3.58;;;1.10;;
52946;SDS011;68773;40.400;17.260;2023-05-18T01:24:57;1.92;;;1.00;;
52946;SDS011;68773;40.400;17.260;2023-05-18T01:30:01;1.77;;;0.98;;
52946;SDS011;68773;40.400;17.260;2023-05-18T01:32:29;3.10;;;1.10;;
52946;SDS011;68773;40.400;17.260;2023-05-18T01:34:55;4.60;;;1.02;;
52946;SDS011;68773;40.400;17.260;2023-05-18T01:37:20;3.28;;;1.20;;
52946;SDS011;68773;40.400;17.260;2023-05-18T01:39:46;3.45;;;0.95;;
52946;SDS011;68773;40.400;17.260;2023-05-18T01:42:14;2.55;;;1.05;;
52946;SDS011;68773;40.400;17.260;2023-05-18T01:44:49;2.95;;;0.80;;
52946;SDS011;68773;40.400;17.260;2023-05-18T01:47:18;2.45;;;1.10;;
52946;SDS011;68773;40.400;17.260;2023-05-18T01:49:45;2.63;;;0.77;;
52946;SDS011;68773;40.400;17.260;2023-05-18T01:52:20;3.83;;;1.08;;
52946;SDS011;68773;40.400;17.260;2023-05-18T01:54:53;5.43;;;1.33;;
52946;SDS011;68773;40.400;17.260;2023-05-18T01:57:23;4.28;;;1.20;;
52946;SDS011;68773;40.400;17.260;2023-05-18T01:59:52;3.17;;;1.20;;
52946;SDS011;68773;40.400;17.260;2023-05-18T02:02:19;1.90;;;0.90;;
52946;SDS011;68773;40.400;17.260;2023-05-18T02:04:45;3.75;;;1.00;;
52946;SDS011;68773;40.400;17.260;2023-05-18T02:07:11;1.52;;;0.80;;
52946;SDS011;68773;40.400;17.260;2023-05-18T02:09:37;2.83;;;0.82;;
52946;SDS011;68773;40.400;17.260;2023-05-18T02:12:03;2.95;;;0.93;;
52946;SDS011;68773;40.400;17.260;2023-05-18T02:14:29;3.72;;;1.13;;
52946;SDS011;68773;40.400;17.260;2023-05-18T02:16:55;4.00;;;1.00;;
52946;SDS011;68773;40.400;17.260;2023-05-18T02:19:21;2.90;;;0.80;;
52946;SDS011;68773;40.400;17.260;2023-05-18T02:21:49;1.98;;;1.02;;
52946;SDS011;68773;40.400;17.260;2023-05-18T02:24:15;4.68;;;0.90;;
52946;SDS011;68773;40.400;17.260;2023-05-18T02:26:42;1.90;;;0.90;;
52946;SDS011;68773;40.400;17.260;2023-05-18T02:29:08;1.70;;;0.85;;
52946;SDS011;68773;40.400;17.260;2023-05-18T02:31:36;1.60;;;0.80;;
52946;SDS011;68773;40.400;17.260;2023-05-18T02:34:02;1.83;;;0.95;;
52946;SDS011;68773;40.400;17.260;2023-05-18T02:36:28;2.97;;;0.98;;
52946;SDS011;68773;40.400;17.260;2023-05-18T02:39:04;2.55;;;0.95;;
52946;SDS011;68773;40.400;17.260;2023-05-18T02:44:52;3.65;;;1.15;;
52946;SDS011;68773;40.400;17.260;2023-05-18T02:47:18;1.63;;;1.10;;
52946;SDS011;68773;40.400;17.260;2023-05-18T02:49:44;6.07;;;1.02;;
52946;SDS011;68773;40.400;17.260;2023-05-18T02:52:09;2.58;;;1.08;;
52946;SDS011;68773;40.400;17.260;2023-05-18T02:54:35;3.67;;;1.05;;
52946;SDS011;68773;40.400;17.260;2023-05-18T02:59:52;2.17;;;1.17;;
52946;SDS011;68773;40.400;17.260;2023-05-18T03:02:18;1.55;;;0.90;;
52946;SDS011;68773;40.400;17.260;2023-05-18T03:08:06;4.45;;;1.05;;
52946;SDS011;68773;40.400;17.260;2023-05-18T03:10:34;2.92;;;0.90;;
52946;SDS011;68773;40.400;17.260;2023-05-18T03:13:01;3.78;;;1.30;;
52946;SDS011;68773;40.400;17.260;2023-05-18T03:15:27;3.35;;;1.45;;
52946;SDS011;68773;40.400;17.260;2023-05-18T03:17:55;5.40;;;1.27;;
52946;SDS011;68773;40.400;17.260;2023-05-18T03:20:23;2.83;;;1.35;;
52946;SDS011;68773;40.400;17.260;2023-05-18T03:22:50;2.47;;;1.30;;
52946;SDS011;68773;40.400;17.260;2023-05-18T03:25:16;4.15;;;1.33;;
52946;SDS011;68773;40.400;17.260;2023-05-18T03:27:42;3.05;;;1.50;;
52946;SDS011;68773;40.400;17.260;2023-05-18T03:30:08;3.53;;;1.23;;
52946;SDS011;68773;40.400;17.260;2023-05-18T03:32:34;4.32;;;1.20;;
52946;SDS011;68773;40.400;17.260;2023-05-18T03:35:01;3.42;;;1.40;;
52946;SDS011;68773;40.400;17.260;2023-05-18T03:37:28;2.25;;;1.30;;
52946;SDS011;68773;40.400;17.260;2023-05-18T03:39:57;4.22;;;1.20;;
52946;SDS011;68773;40.400;17.260;2023-05-18T03:42:24;3.33;;;1.52;;
52946;SDS011;68773;40.400;17.260;2023-05-18T03:44:50;2.78;;;1.35;;
52946;SDS011;68773;40.400;17.260;2023-05-18T03:47:16;3.50;;;1.10;;
52946;SDS011;68773;40.400;17.260;2023-05-18T03:49:42;3.08;;;1.13;;
52946;SDS011;68773;40.400;17.260;2023-05-18T03:52:08;2.97;;;1.25;;
52946;SDS011;68773;40.400;17.260;2023-05-18T03:54:35;2.67;;;1.27;;
52946;SDS011;68773;40.400;17.260;2023-05-18T03:57:01;4.00;;;1.52;;
52946;SDS011;68773;40.400;17.260;2023-05-18T03:59:26;4.97;;;1.30;;
52946;SDS011;68773;40.400;17.260;2023-05-18T04:01:55;3.63;;;1.45;;
52946;SDS011;68773;40.400;17.260;2023-05-18T04:04:20;4.60;;;1.40;;
52946;SDS011;68773;40.400;17.260;2023-05-18T04:06:48;10.07;;;2.28;;
52946;SDS011;68773;40.400;17.260;2023-05-18T04:09:17;4.20;;;1.27;;
52946;SDS011;68773;40.400;17.260;2023-05-18T04:11:44;4.03;;;1.20;;
52946;SDS011;68773;40.400;17.260;2023-05-18T04:14:10;3.28;;;1.38;;
52946;SDS011;68773;40.400;17.260;2023-05-18T04:16:36;4.45;;;1.38;;
52946;SDS011;68773;40.400;17.260;2023-05-18T04:19:02;3.42;;;1.15;;
52946;SDS011;68773;40.400;17.260;2023-05-18T04:21:30;3.70;;;1.25;;
52946;SDS011;68773;40.400;17.260;2023-05-18T04:24:02;4.65;;;1.40;;
52946;SDS011;68773;40.400;17.260;2023-05-18T04:26:30;2.05;;;1.25;;
52946;SDS011;68773;40.400;17.260;2023-05-18T04:28:57;2.95;;;1.33;;
52946;SDS011;68773;40.400;17.260;2023-05-18T04:31:26;2.58;;;1.20;;
52946;SDS011;68773;40.400;17.260;2023-05-18T04:33:53;8.55;;;3.67;;
52946;SDS011;68773;40.400;17.260;2023-05-18T04:36:20;4.70;;;1.05;;
52946;SDS011;68773;40.400;17.260;2023-05-18T04:38:50;1.95;;;1.20;;
52946;SDS011;68773;40.400;17.260;2023-05-18T04:41:16;3.28;;;1.17;;
52946;SDS011;68773;40.400;17.260;2023-05-18T04:43:46;3.47;;;1.17;;
52946;SDS011;68773;40.400;17.260;2023-05-18T04:46:12;2.92;;;1.10;;
52946;SDS011;68773;40.400;17.260;2023-05-18T04:48:40;1.77;;;0.93;;
52946;SDS011;68773;40.400;17.260;2023-05-18T04:51:06;2.00;;;1.00;;
52946;SDS011;68773;40.400;17.260;2023-05-18T04:53:33;3.25;;;1.30;;
52946;SDS011;68773;40.400;17.260;2023-05-18T04:55:59;2.25;;;1.30;;
52946;SDS011;68773;40.400;17.260;2023-05-18T04:58:25;4.38;;;1.40;;
52946;SDS011;68773;40.400;17.260;2023-05-18T05:00:52;4.03;;;1.10;;
52946;SDS011;68773;40.400;17.260;2023-05-18T05:03:18;3.83;;;1.40;;
52946;SDS011;68773;40.400;17.260;2023-05-18T05:05:43;3.58;;;1.20;;
52946;SDS011;68773;40.400;17.260;2023-05-18T05:08:09;1.50;;;1.17;;
52946;SDS011;68773;40.400;17.260;2023-05-18T05:10:35;2.22;;;1.10;;
52946;SDS011;68773;40.400;17.260;2023-05-18T05:13:01;2.45;;;1.20;;
52946;SDS011;68773;40.400;17.260;2023-05-18T05:15:28;1.98;;;1.00;;
52946;SDS011;68773;40.400;17.260;2023-05-18T05:17:54;1.85;;;0.85;;
52946;SDS011;68773;40.400;17.260;2023-05-18T05:20:19;2.80;;;1.00;;
52946;SDS011;68773;40.400;17.260;2023-05-18T05:22:45;2.47;;;0.90;;
52946;SDS011;68773;40.400;17.260;2023-05-18T05:25:11;2.95;;;1.20;;
52946;SDS011;68773;40.400;17.260;2023-05-18T05:27:37;2.40;;;1.02;;
52946;SDS011;68773;40.400;17.260;2023-05-18T05:30:03;2.97;;;0.80;;
52946;SDS011;68773;40.400;17.260;2023-05-18T05:32:30;2.50;;;1.20;;
52946;SDS011;68773;40.400;17.260;2023-05-18T05:34:55;2.83;;;1.20;;
52946;SDS011;68773;40.400;17.260;2023-05-18T05:37:21;1.35;;;0.80;;
52946;SDS011;68773;40.400;17.260;2023-05-18T05:39:47;1.33;;;0.88;;
52946;SDS011;68773;40.400;17.260;2023-05-18T05:42:12;4.75;;;1.20;;
52946;SDS011;68773;40.400;17.260;2023-05-18T05:44:38;2.90;;;1.20;;
52946;SDS011;68773;40.400;17.260;2023-05-18T05:47:05;2.63;;;1.27;;
52946;SDS011;68773;40.400;17.260;2023-05-18T05:49:31;3.13;;;1.10;;
52946;SDS011;68773;40.400;17.260;2023-05-18T05:51:57;5.90;;;1.10;;
52946;SDS011;68773;40.400;17.260;2023-05-18T05:54:22;2.17;;;0.85;;
52946;SDS011;68773;40.400;17.260;2023-05-18T05:56:48;4.60;;;1.50;;
52946;SDS011;68773;40.400;17.260;2023-05-18T05:59:14;1.80;;;1.10;;
52946;SDS011;68773;40.400;17.260;2023-05-18T06:01:39;3.88;;;1.00;;
52946;SDS011;68773;40.400;17.260;2023-05-18T06:04:05;2.30;;;1.00;;
52946;SDS011;68773;40.400;17.260;2023-05-18T06:06:35;4.78;;;1.08;;
52946;SDS011;68773;40.400;17.260;2023-05-18T06:09:02;3.72;;;1.10;;
52946;SDS011;68773;40.400;17.260;2023-05-18T06:11:31;4.60;;;1.10;;
52946;SDS011;68773;40.400;17.260;2023-05-18T06:13:57;3.63;;;1.45;;
52946;SDS011;68773;40.400;17.260;2023-05-18T06:16:23;4.68;;;2.20;;
52946;SDS011;68773;40.400;17.260;2023-05-18T06:18:50;6.65;;;2.70;;
52946;SDS011;68773;40.400;17.260;2023-05-18T06:21:15;5.40;;;2.55;;
52946;SDS011;68773;40.400;17.260;2023-05-18T06:23:41;6.75;;;2.05;;
52946;SDS011;68773;40.400;17.260;2023-05-18T06:26:08;3.05;;;1.20;;
52946;SDS011;68773;40.400;17.260;2023-05-18T06:28:34;4.57;;;1.25;;
52946;SDS011;68773;40.400;17.260;2023-05-18T06:31:00;1.55;;;1.00;;
52946;SDS011;68773;40.400;17.260;2023-05-18T06:33:26;1.58;;;0.98;;
52946;SDS011;68773;40.400;17.260;2023-05-18T06:35:52;2.70;;;1.10;;
52946;SDS011;68773;40.400;17.260;2023-05-18T06:38:18;2.15;;;0.82;;
52946;SDS011;68773;40.400;17.260;2023-05-18T06:40:44;3.53;;;1.17;;
52946;SDS011;68773;40.400;17.260;2023-05-18T06:43:10;5.22;;;0.98;;
52946;SDS011;68773;40.400;17.260;2023-05-18T06:45:35;4.63;;;1.30;;
52946;SDS011;68773;40.400;17.260;2023-05-18T06:48:01;2.60;;;1.00;;
52946;SDS011;68773;40.400;17.260;2023-05-18T06:50:27;3.60;;;0.93;;
52946;SDS011;68773;40.400;17.260;2023-05-18T06:52:53;2.42;;;0.77;;
52946;SDS011;68773;40.400;17.260;2023-05-18T06:55:18;2.28;;;0.90;;
52946;SDS011;68773;40.400;17.260;2023-05-18T06:57:44;1.83;;;0.90;;
52946;SDS011;68773;40.400;17.260;2023-05-18T07:00:10;2.45;;;0.80;;
52946;SDS011;68773;40.400;17.260;2023-05-18T07:02:36;2.08;;;0.93;;
52946;SDS011;68773;40.400;17.260;2023-05-18T07:05:03;3.45;;;1.33;;
52946;SDS011;68773;40.400;17.260;2023-05-18T07:07:33;3.53;;;1.42;;
52946;SDS011;68773;40.400;17.260;2023-05-18T07:10:00;5.63;;;1.23;;
52946;SDS011;68773;40.400;17.260;2023-05-18T07:12:26;3.78;;;1.35;;
52946;SDS011;68773;40.400;17.260;2023-05-18T07:14:52;6.43;;;1.60;;
52946;SDS011;68773;40.400;17.260;2023-05-18T07:17:18;3.80;;;1.40;;
52946;SDS011;68773;40.400;17.260;2023-05-18T07:19:43;4.75;;;1.50;;
52946;SDS011;68773;40.400;17.260;2023-05-18T07:22:09;5.43;;;1.60;;
52946;SDS011;68773;40.400;17.260;2023-05-18T07:24:35;6.68;;;1.27;;
52946;SDS011;68773;40.400;17.260;2023-05-18T07:27:01;5.60;;;1.70;;
52946;SDS011;68773;40.400;17.260;2023-05-18T07:29:27;6.35;;;1.77;;
52946;SDS011;68773;40.400;17.260;2023-05-18T07:31:53;5.10;;;1.40;;
52946;SDS011;68773;40.400;17.260;2023-05-18T07:34:19;3.53;;;1.70;;
52946;SDS011;68773;40.400;17.260;2023-05-18T07:36:45;4.00;;;1.63;;
52946;SDS011;68773;40.400;17.260;2023-05-18T07:39:10;2.22;;;1.15;;
52946;SDS011;68773;40.400;17.260;2023-05-18T07:41:43;4.78;;;1.40;;
52946;SDS011;68773;40.400;17.260;2023-05-18T07:44:11;4.55;;;1.55;;
52946;SDS011;68773;40.400;17.260;2023-05-18T07:46:37;3.67;;;1.40;;
52946;SDS011;68773;40.400;17.260;2023-05-18T07:49:03;3.58;;;1.38;;
52946;SDS011;68773;40.400;17.260;2023-05-18T07:51:29;3.60;;;1.25;;
52946;SDS011;68773;40.400;17.260;2023-05-18T07:53:55;2.90;;;1.77;;
52946;SDS011;68773;40.400;17.260;2023-05-18T07:56:22;4.28;;;1.30;;
52946;SDS011;68773;40.400;17.260;2023-05-18T07:58:48;2.53;;;1.20;;
52946;SDS011;68773;40.400;17.260;2023-05-18T08:01:14;4.85;;;1.50;;
52946;SDS011;68773;40.400;17.260;2023-05-18T08:03:41;4.13;;;1.42;;
52946;SDS011;68773;40.400;17.260;2023-05-18T08:06:06;4.03;;;1.70;;
52946;SDS011;68773;40.400;17.260;2023-05-18T08:08:32;3.90;;;2.00;;
52946;SDS011;68773;40.400;17.260;2023-05-18T08:11:01;6.10;;;1.88;;
52946;SDS011;68773;40.400;17.260;2023-05-18T08:13:28;4.72;;;2.22;;
52946;SDS011;68773;40.400;17.260;2023-05-18T08:15:54;5.10;;;2.08;;
52946;SDS011;68773;40.400;17.260;2023-05-18T08:18:22;4.45;;;1.45;;
52946;SDS011;68773;40.400;17.260;2023-05-18T08:20:48;3.70;;;1.45;;
52946;SDS011;68773;40.400;17.260;2023-05-18T08:23:17;4.78;;;1.60;;
52946;SDS011;68773;40.400;17.260;2023-05-18T08:25:43;5.38;;;1.10;;
52946;SDS011;68773;40.400;17.260;2023-05-18T08:28:09;2.92;;;1.10;;
52946;SDS011;68773;40.400;17.260;2023-05-18T08:30:35;2.70;;;1.20;;
52946;SDS011;68773;40.400;17.260;2023-05-18T08:33:01;3.97;;;1.27;;
52946;SDS011;68773;40.400;17.260;2023-05-18T08:35:27;2.70;;;1.08;;
52946;SDS011;68773;40.400;17.260;2023-05-18T08:37:53;3.72;;;1.10;;
52946;SDS011;68773;40.400;17.260;2023-05-18T08:40:19;3.88;;;1.20;;
52946;SDS011;68773;40.400;17.260;2023-05-18T08:45:25;5.15;;;1.20;;
52946;SDS011;68773;40.400;17.260;2023-05-18T08:47:55;3.47;;;1.40;;
52946;SDS011;68773;40.400;17.260;2023-05-18T08:50:24;4.63;;;1.20;;
52946;SDS011;68773;40.400;17.260;2023-05-18T08:52:51;2.28;;;1.20;;
52946;SDS011;68773;40.400;17.260;2023-05-18T08:55:19;2.17;;;1.30;;
52946;SDS011;68773;40.400;17.260;2023-05-18T08:57:48;3.20;;;1.05;;
52946;SDS011;68773;40.400;17.260;2023-05-18T09:00:20;6.05;;;1.38;;
52946;SDS011;68773;40.400;17.260;2023-05-18T09:02:46;3.50;;;1.25;;
52946;SDS011;68773;40.400;17.260;2023-05-18T09:05:13;4.22;;;1.10;;
52946;SDS011;68773;40.400;17.260;2023-05-18T09:07:40;3.53;;;1.15;;
52946;SDS011;68773;40.400;17.260;2023-05-18T09:10:10;1.42;;;1.10;;
52946;SDS011;68773;40.400;17.260;2023-05-18T09:12:37;5.05;;;1.52;;
52946;SDS011;68773;40.400;17.260;2023-05-18T09:15:07;4.43;;;1.33;;
52946;SDS011;68773;40.400;17.260;2023-05-18T09:17:35;2.85;;;1.27;;
52946;SDS011;68773;40.400;17.260;2023-05-18T09:20:01;5.10;;;1.58;;
52946;SDS011;68773;40.400;17.260;2023-05-18T09:22:29;1.80;;;1.08;;
52946;SDS011;68773;40.400;17.260;2023-05-18T09:24:55;5.90;;;1.35;;
52946;SDS011;68773;40.400;17.260;2023-05-18T09:27:21;5.03;;;1.20;;
52946;SDS011;68773;40.400;17.260;2023-05-18T09:29:51;2.97;;;0.90;;
52946;SDS011;68773;40.400;17.260;2023-05-18T09:32:21;3.55;;;1.25;;
52946;SDS011;68773;40.400;17.260;2023-05-18T09:34:48;2.15;;;1.10;;
52946;SDS011;68773;40.400;17.260;2023-05-18T09:37:18;2.13;;;1.10;;
52946;SDS011;68773;40.400;17.260;2023-05-18T09:39:44;3.13;;;0.93;;
52946;SDS011;68773;40.400;17.260;2023-05-18T09:42:40;1.98;;;1.10;;
52946;SDS011;68773;40.400;17.260;2023-05-18T09:45:17;3.58;;;1.00;;
52946;SDS011;68773;40.400;17.260;2023-05-18T09:47:53;2.78;;;1.30;;
52946;SDS011;68773;40.400;17.260;2023-05-18T09:50:19;1.33;;;0.90;;
52946;SDS011;68773;40.400;17.260;2023-05-18T09:52:45;2.63;;;1.05;;
52946;SDS011;68773;40.400;17.260;2023-05-18T09:55:16;3.28;;;1.48;;
52946;SDS011;68773;40.400;17.260;2023-05-18T09:57:47;3.42;;;1.55;;
52946;SDS011;68773;40.400;17.260;2023-05-18T10:00:14;4.13;;;1.13;;
52946;SDS011;68773;40.400;17.260;2023-05-18T10:02:43;5.70;;;1.23;;
52946;SDS011;68773;40.400;17.260;2023-05-18T10:07:51;2.63;;;1.20;;
52946;SDS011;68773;40.400;17.260;2023-05-18T10:10:19;3.25;;;0.95;;
52946;SDS011;68773;40.400;17.260;2023-05-18T10:12:49;3.85;;;0.90;;
52946;SDS011;68773;40.400;17.260;2023-05-18T10:15:16;6.55;;;1.40;;
52946;SDS011;68773;40.400;17.260;2023-05-18T10:17:44;2.42;;;1.20;;
52946;SDS011;68773;40.400;17.260;2023-05-18T10:20:13;3.97;;;1.40;;
52946;SDS011;68773;40.400;17.260;2023-05-18T10:22:43;3.42;;;1.05;;
52946;SDS011;68773;40.400;17.260;2023-05-18T10:25:10;3.22;;;1.30;;
52946;SDS011;68773;40.400;17.260;2023-05-18T10:27:36;2.70;;;1.10;;
52946;SDS011;68773;40.400;17.260;2023-05-18T10:30:03;5.07;;;1.33;;
52946;SDS011;68773;40.400;17.260;2023-05-18T10:32:33;2.90;;;1.27;;
52946;SDS011;68773;40.400;17.260;2023-05-18T10:35:00;6.50;;;1.40;;
52946;SDS011;68773;40.400;17.260;2023-05-18T10:37:29;2.22;;;1.17;;
52946;SDS011;68773;40.400;17.260;2023-05-18T10:39:57;3.00;;;1.45;;
52946;SDS011;68773;40.400;17.260;2023-05-18T10:42:24;5.22;;;1.38;;
52946;SDS011;68773;40.400;17.260;2023-05-18T10:44:51;3.83;;;1.38;;
52946;SDS011;68773;40.400;17.260;2023-05-18T10:47:18;2.00;;;1.05;;
52946;SDS011;68773;40.400;17.260;2023-05-18T10:49:46;2.05;;;1.15;;
52946;SDS011;68773;40.400;17.260;2023-05-18T10:52:13;2.65;;;1.30;;
52946;SDS011;68773;40.400;17.260;2023-05-18T10:54:41;3.60;;;1.10;;
52946;SDS011;68773;40.400;17.260;2023-05-18T10:57:10;6.60;;;1.13;;
52946;SDS011;68773;40.400;17.260;2023-05-18T10:59:40;2.38;;;1.10;;
52946;SDS011;68773;40.400;17.260;2023-05-18T11:02:08;4.13;;;1.02;;
52946;SDS011;68773;40.400;17.260;2023-05-18T11:04:37;3.70;;;1.10;;
52946;SDS011;68773;40.400;17.260;2023-05-18T11:07:04;3.58;;;0.90;;
52946;SDS011;68773;40.400;17.260;2023-05-18T11:09:34;1.58;;;0.93;;
52946;SDS011;68773;40.400;17.260;2023-05-18T11:12:00;2.78;;;1.13;;
52946;SDS011;68773;40.400;17.260;2023-05-18T11:14:29;4.90;;;1.48;;
52946;SDS011;68773;40.400;17.260;2023-05-18T11:17:15;2.33;;;0.95;;
52946;SDS011;68773;40.400;17.260;2023-05-18T11:22:46;2.90;;;1.10;;
52946;SDS011;68773;40.400;17.260;2023-05-18T11:27:49;1.70;;;1.00;;
52946;SDS011;68773;40.400;17.260;2023-05-18T11:30:26;2.90;;;1.35;;
52946;SDS011;68773;40.400;17.260;2023-05-18T11:38:21;2.88;;;0.90;;
52946;SDS011;68773;40.400;17.260;2023-05-18T11:40:47;4.63;;;1.10;;
52946;SDS011;68773;40.400;17.260;2023-05-18T11:43:21;2.15;;;0.90;;
52946;SDS011;68773;40.400;17.260;2023-05-18T11:45:51;2.47;;;1.10;;
52946;SDS011;68773;40.400;17.260;2023-05-18T11:48:22;3.28;;;1.02;;
52946;SDS011;68773;40.400;17.260;2023-05-18T11:50:54;5.20;;;1.30;;
52946;SDS011;68773;40.400;17.260;2023-05-18T11:53:23;3.55;;;1.13;;
52946;SDS011;68773;40.400;17.260;2023-05-18T11:55:52;3.25;;;1.10;;
52946;SDS011;68773;40.400;17.260;2023-05-18T11:58:19;2.42;;;0.85;;
52946;SDS011;68773;40.400;17.260;2023-05-18T12:00:46;1.27;;;0.82;;
52946;SDS011;68773;40.400;17.260;2023-05-18T12:03:13;2.63;;;1.08;;
52946;SDS011;68773;40.400;17.260;2023-05-18T12:05:40;2.45;;;0.82;;
52946;SDS011;68773;40.400;17.260;2023-05-18T12:08:09;4.68;;;1.08;;
52946;SDS011;68773;40.400;17.260;2023-05-18T12:10:35;1.63;;;0.77;;
52946;SDS011;68773;40.400;17.260;2023-05-18T12:13:01;4.38;;;1.10;;
52946;SDS011;68773;40.400;17.260;2023-05-18T12:15:28;4.60;;;1.25;;
52946;SDS011;68773;40.400;17.260;2023-05-18T12:17:57;3.10;;;1.00;;
52946;SDS011;68773;40.400;17.260;2023-05-18T12:20:23;1.58;;;1.30;;
52946;SDS011;68773;40.400;17.260;2023-05-18T12:22:53;2.60;;;0.80;;
52946;SDS011;68773;40.400;17.260;2023-05-18T12:25:20;1.92;;;0.80;;
52946;SDS011;68773;40.400;17.260;2023-05-18T12:27:47;1.67;;;0.80;;
52946;SDS011;68773;40.400;17.260;2023-05-18T12:32:43;2.78;;;1.05;;
52946;SDS011;68773;40.400;17.260;2023-05-18T12:35:10;1.83;;;0.70;;
52946;SDS011;68773;40.400;17.260;2023-05-18T12:37:42;4.45;;;1.10;;
52946;SDS011;68773;40.400;17.260;2023-05-18T12:40:09;2.85;;;0.90;;
52946;SDS011;68773;40.400;17.260;2023-05-18T12:42:36;3.05;;;1.00;;
52946;SDS011;68773;40.400;17.260;2023-05-18T12:45:02;1.92;;;0.80;;
52946;SDS011;68773;40.400;17.260;2023-05-18T12:47:29;3.85;;;0.90;;
52946;SDS011;68773;40.400;17.260;2023-05-18T12:49:59;1.92;;;1.00;;
52946;SDS011;68773;40.400;17.260;2023-05-18T12:52:26;2.28;;;0.82;;
52946;SDS011;68773;40.400;17.260;2023-05-18T12:54:55;2.53;;;1.00;;
52946;SDS011;68773;40.400;17.260;2023-05-18T12:57:27;1.55;;;0.90;;
52946;SDS011;68773;40.400;17.260;2023-05-18T13:00:00;3.42;;;0.75;;
52946;SDS011;68773;40.400;17.260;2023-05-18T13:02:33;3.50;;;0.70;;
52946;SDS011;68773;40.400;17.260;2023-05-18T13:07:29;2.80;;;0.95;;
52946;SDS011;68773;40.400;17.260;2023-05-18T13:10:05;4.18;;;1.20;;
52946;SDS011;68773;40.400;17.260;2023-05-18T13:12:45;1.92;;;0.80;;
52946;SDS011;68773;40.400;17.260;2023-05-18T13:15:13;1.50;;;0.75;;
52946;SDS011;68773;40.400;17.260;2023-05-18T13:20:45;2.75;;;0.65;;
52946;SDS011;68773;40.400;17.260;2023-05-18T13:23:20;1.83;;;0.70;;
52946;SDS011;68773;40.400;17.260;2023-05-18T13:25:50;1.40;;;1.08;;
52946;SDS011;68773;40.400;17.260;2023-05-18T13:28:19;2.40;;;0.88;;
52946;SDS011;68773;40.400;17.260;2023-05-18T13:30:46;1.88;;;0.70;;
52946;SDS011;68773;40.400;17.260;2023-05-18T13:33:14;2.72;;;1.00;;
52946;SDS011;68773;40.400;17.260;2023-05-18T13:35:43;2.47;;;0.85;;
52946;SDS011;68773;40.400;17.260;2023-05-18T13:38:11;2.22;;;0.77;;
52946;SDS011;68773;40.400;17.260;2023-05-18T13:40:38;4.68;;;0.68;;
52946;SDS011;68773;40.400;17.260;2023-05-18T13:43:04;2.72;;;0.90;;
52946;SDS011;68773;40.400;17.260;2023-05-18T13:45:31;3.50;;;0.60;;
52946;SDS011;68773;40.400;17.260;2023-05-18T13:47:57;4.43;;;0.80;;
52946;SDS011;68773;40.400;17.260;2023-05-18T13:50:23;1.20;;;0.50;;
52946;SDS011;68773;40.400;17.260;2023-05-18T13:52:50;2.30;;;0.77;;
52946;SDS011;68773;40.400;17.260;2023-05-18T13:55:16;2.00;;;0.80;;
52946;SDS011;68773;40.400;17.260;2023-05-18T13:57:43;3.25;;;0.70;;
52946;SDS011;68773;40.400;17.260;2023-05-18T14:00:10;1.65;;;0.70;;
52946;SDS011;68773;40.400;17.260;2023-05-18T14:02:40;2.65;;;0.70;;
52946;SDS011;68773;40.400;17.260;2023-05-18T14:05:07;1.27;;;0.63;;
52946;SDS011;68773;40.400;17.260;2023-05-18T14:07:37;1.98;;;0.90;;
52946;SDS011;68773;40.400;17.260;2023-05-18T14:10:05;7.50;;;0.80;;
52946;SDS011;68773;40.400;17.260;2023-05-18T14:12:31;3.72;;;1.45;;
52946;SDS011;68773;40.400;17.260;2023-05-18T14:17:18;13.13;;;1.67;;
52946;SDS011;68773;40.400;17.260;2023-05-18T14:19:44;2.67;;;0.80;;
52946;SDS011;68773;40.400;17.260;2023-05-18T14:22:10;2.53;;;0.95;;
52946;SDS011;68773;40.400;17.260;2023-05-18T14:24:37;3.40;;;0.82;;
52946;SDS011;68773;40.400;17.260;2023-05-18T14:27:03;3.35;;;0.90;;
52946;SDS011;68773;40.400;17.260;2023-05-18T14:29:29;3.40;;;0.70;;
52946;SDS011;68773;40.400;17.260;2023-05-18T14:31:56;2.03;;;0.65;;
52946;SDS011;68773;40.400;17.260;2023-05-18T14:34:22;1.73;;;0.90;;
52946;SDS011;68773;40.400;17.260;2023-05-18T14:36:48;4.97;;;1.08;;
52946;SDS011;68773;40.400;17.260;2023-05-18T14:39:13;3.13;;;0.82;;
52946;SDS011;68773;40.400;17.260;2023-05-18T14:41:39;2.30;;;1.00;;
52946;SDS011;68773;40.400;17.260;2023-05-18T14:44:05;2.67;;;0.95;;
52946;SDS011;68773;40.400;17.260;2023-05-18T14:46:34;3.05;;;1.02;;
52946;SDS011;68773;40.400;17.260;2023-05-18T14:49:01;2.83;;;0.93;;
52946;SDS011;68773;40.400;17.260;2023-05-18T14:51:27;3.17;;;0.77;;
52946;SDS011;68773;40.400;17.260;2023-05-18T14:53:53;2.83;;;0.85;;
52946;SDS011;68773;40.400;17.260;2023-05-18T14:56:19;2.22;;;0.85;;
52946;SDS011;68773;40.400;17.260;2023-05-18T14:58:45;2.50;;;1.00;;
52946;SDS011;68773;40.400;17.260;2023-05-18T15:01:11;2.85;;;0.88;;
52946;SDS011;68773;40.400;17.260;2023-05-18T15:03:37;4.97;;;1.02;;
52946;SDS011;68773;40.400;17.260;2023-05-18T15:06:03;4.45;;;1.30;;
52946;SDS011;68773;40.400;17.260;2023-05-18T15:08:28;6.10;;;2.00;;
52946;SDS011;68773;40.400;17.260;2023-05-18T15:10:54;4.03;;;1.98;;
52946;SDS011;68773;40.400;17.260;2023-05-18T15:13:20;6.93;;;2.80;;
52946;SDS011;68773;40.400;17.260;2023-05-18T15:15:45;8.20;;;2.50;;
52946;SDS011;68773;40.400;17.260;2023-05-18T15:18:12;11.20;;;2.47;;
52946;SDS011;68773;40.400;17.260;2023-05-18T15:20:38;7.07;;;2.30;;
52946;SDS011;68773;40.400;17.260;2023-05-18T15:23:06;4.03;;;2.13;;